^^
Saratoga-Weather Station Historical Data
Daily Summary for October 4, 2020 Units:  Both    English   Metric
Daily Weekly Monthly Yearly Custom
  High: Low: Average:
Temperature: 59.5 °F /  15.3 °C 47.1 °F /  8.4 °C 51.3 °F /  10.7 °C
Dew Point: 52.2 °F /  11.2 °C 45.7 °F /  7.6 °C 48.2 °F /  9 °C
Humidity: 96% 65% 89%
Wind Speed: 10.1mph /  16.3km/h - 2.3mph /  3.7km/h
Wind Gust: 19mph /  30.6km/h - -
Wind- - South
Pressure: 29.5 in /  999.3 hPa 29.1 in /  985.8 hPa -
Precipitation: 0.56 in /  14.2 mm    
Historical Graphs
 
 
Tabular Data for October 4, 2020
Time Temperature Dew Point Pressure Wind Wind Speed Wind Gust Humidity Rainfall Rate (Hourly) solar
00:02 50.5 °F /  10.3 °C 48.6 °F /  9.2 °C 29.2in /  987.1hPa NE 10.1mph /  16.3km/h 10mph /  16.1km/h 93% 0.06in /  1.5mm 0 W/m2
00:07 50.5 °F /  10.3 °C 48.9 °F /  9.4 °C 29.2in /  987.1hPa ENE 4.9mph /  7.9km/h 7mph /  11.3km/h 94% 0.06in /  1.5mm 0 W/m2
00:12 50.5 °F /  10.3 °C 48.9 °F /  9.4 °C 29.2in /  987.1hPa ENE 4mph /  6.4km/h 9mph /  14.5km/h 94% 0.06in /  1.5mm 0 W/m2
00:17 50.4 °F /  10.2 °C 48.7 °F /  9.3 °C 29.1in /  986.8hPa NE 2mph /  3.2km/h 8mph /  12.9km/h 94% 0.06in /  1.5mm 0 W/m2
00:22 50.4 °F /  10.2 °C 48.7 °F /  9.3 °C 29.1in /  986.8hPa East 4mph /  6.4km/h 12mph /  19.3km/h 94% 0.06in /  1.5mm 0 W/m2
00:27 50.4 °F /  10.2 °C 48.7 °F /  9.3 °C 29.1in /  986.5hPa NNE 2mph /  3.2km/h 12mph /  19.3km/h 94% 0.07in /  1.8mm 0 W/m2
00:32 50.4 °F /  10.2 °C 48.7 °F /  9.3 °C 29.1in /  986.5hPa East 2.9mph /  4.7km/h 9mph /  14.5km/h 94% 0.07in /  1.8mm 0 W/m2
00:37 50.2 °F /  10.1 °C 48.6 °F /  9.2 °C 29.1in /  986.5hPa ESE 2.9mph /  4.7km/h 12mph /  19.3km/h 94% 0.07in /  1.8mm 0 W/m2
00:42 50.4 °F /  10.2 °C 48.7 °F /  9.3 °C 29.1in /  986.5hPa NE 0.9mph /  1.4km/h 7mph /  11.3km/h 94% 0.06in /  1.5mm 0 W/m2
00:47 50.4 °F /  10.2 °C 48.7 °F /  9.3 °C 29.1in /  986.5hPa NNE 2mph /  3.2km/h 8mph /  12.9km/h 94% 0.06in /  1.5mm 0 W/m2
00:52 50.4 °F /  10.2 °C 48.7 °F /  9.3 °C 29.1in /  986.5hPa East 2.9mph /  4.7km/h 9mph /  14.5km/h 94% 0.06in /  1.5mm 0 W/m2
00:57 50.2 °F /  10.1 °C 48.6 °F /  9.2 °C 29.1in /  986.5hPa East 6.9mph /  11.1km/h 9mph /  14.5km/h 94% 0.06in /  1.5mm 0 W/m2
01:02 50.2 °F /  10.1 °C 48.6 °F /  9.2 °C 29.1in /  986.5hPa East 4mph /  6.4km/h 13mph /  20.9km/h 94% 0.05in /  1.3mm 0 W/m2
01:07 50.2 °F /  10.1 °C 48.6 °F /  9.2 °C 29.1in /  986.1hPa NE 4.9mph /  7.9km/h 13mph /  20.9km/h 94% 0.05in /  1.3mm 0 W/m2
01:12 50.2 °F /  10.1 °C 48.6 °F /  9.2 °C 29.1in /  986.5hPa East 2.9mph /  4.7km/h 13mph /  20.9km/h 94% 0.04in /  1.0mm 0 W/m2
01:17 50.2 °F /  10.1 °C 48.6 °F /  9.2 °C 29.1in /  986.1hPa ENE 4mph /  6.4km/h 13mph /  20.9km/h 94% 0.03in /  0.8mm 0 W/m2
01:22 50.2 °F /  10.1 °C 48.6 °F /  9.2 °C 29.1in /  986.1hPa SSE 2mph /  3.2km/h 8mph /  12.9km/h 94% 0.03in /  0.8mm 0 W/m2
01:27 50.2 °F /  10.1 °C 48.6 °F /  9.2 °C 29.1in /  986.1hPa NE 4mph /  6.4km/h 13mph /  20.9km/h 94% 0.02in /  0.5mm 0 W/m2
01:32 50.2 °F /  10.1 °C 48.6 °F /  9.2 °C 29.1in /  986.1hPa ENE 4mph /  6.4km/h 9mph /  14.5km/h 94% 0.02in /  0.5mm 0 W/m2
01:37 50.2 °F /  10.1 °C 48.6 °F /  9.2 °C 29.1in /  986.1hPa NE 4mph /  6.4km/h 6mph /  9.7km/h 94% 0.02in /  0.5mm 0 W/m2
01:42 50.2 °F /  10.1 °C 48.7 °F /  9.3 °C 29.1in /  986.1hPa NE 2.9mph /  4.7km/h 5mph /  8km/h 95% 0.02in /  0.5mm 0 W/m2
01:47 50.2 °F /  10.1 °C 48.7 °F /  9.3 °C 29.1in /  986.1hPa East 6.9mph /  11.1km/h 13mph /  20.9km/h 95% 0.01in /  0.2mm 0 W/m2
01:52 50.2 °F /  10.1 °C 48.7 °F /  9.3 °C 29.1in /  985.8hPa Calm   4mph /  6.4km/h 95% 0.02in /  0.5mm 0 W/m2
01:57 50.2 °F /  10.1 °C 48.7 °F /  9.3 °C 29.1in /  986.1hPa SSE 2mph /  3.2km/h 10mph /  16.1km/h 95% 0.02in /  0.5mm 0 W/m2
02:03 50.2 °F /  10.1 °C 48.7 °F /  9.3 °C 29.1in /  986.1hPa SE 0.9mph /  1.4km/h 3mph /  4.8km/h 95% 0.01in /  0.2mm 0 W/m2
02:08 50.4 °F /  10.2 °C 48.9 °F /  9.4 °C 29.1in /  985.8hPa ENE 2mph /  3.2km/h 6mph /  9.7km/h 95% 0.01in /  0.2mm 0 W/m2
02:13 50.4 °F /  10.2 °C 48.9 °F /  9.4 °C 29.1in /  985.8hPa ENE 0.9mph /  1.4km/h 5mph /  8km/h 95% 0.01in /  0.2mm 0 W/m2
02:18 50.4 °F /  10.2 °C 48.9 °F /  9.4 °C 29.1in /  985.8hPa NNE 0.9mph /  1.4km/h 5mph /  8km/h 95% 0.01in /  0.2mm 0 W/m2
02:23 50.4 °F /  10.2 °C 48.7 °F /  9.3 °C 29.1in /  985.8hPa East 2mph /  3.2km/h 4mph /  6.4km/h 94% 0.01in /  0.2mm 0 W/m2
02:28 50.4 °F /  10.2 °C 48.7 °F /  9.3 °C 29.1in /  985.8hPa NE 2mph /  3.2km/h 2mph /  3.2km/h 94% 0.01in /  0.2mm 0 W/m2
02:33 50.4 °F /  10.2 °C 48.7 °F /  9.3 °C 29.1in /  985.8hPa Calm   5mph /  8km/h 94% 0.01in /  0.2mm 0 W/m2
02:38 50.4 °F /  10.2 °C 48.7 °F /  9.3 °C 29.1in /  986.1hPa ENE 0.9mph /  1.4km/h 3mph /  4.8km/h 94% 0.01in /  0.2mm 0 W/m2
02:43 50.4 °F /  10.2 °C 48.9 °F /  9.4 °C 29.1in /  986.1hPa Calm   3mph /  4.8km/h 95% 0.02in /  0.5mm 0 W/m2
02:48 50.2 °F /  10.1 °C 48.7 °F /  9.3 °C 29.1in /  986.1hPa East 0.9mph /  1.4km/h 4mph /  6.4km/h 95% 0.02in /  0.5mm 0 W/m2
02:53 50.2 °F /  10.1 °C 48.7 °F /  9.3 °C 29.1in /  986.5hPa North 0.9mph /  1.4km/h 5mph /  8km/h 95% 0.02in /  0.5mm 0 W/m2
02:58 50.2 °F /  10.1 °C 48.7 °F /  9.3 °C 29.1in /  986.5hPa NW 0.9mph /  1.4km/h 3mph /  4.8km/h 95% 0.02in /  0.5mm 0 W/m2
03:03 50.2 °F /  10.1 °C 48.7 °F /  9.3 °C 29.1in /  986.5hPa ESE 0.9mph /  1.4km/h 6mph /  9.7km/h 95% 0.02in /  0.5mm 0 W/m2
03:08 50.4 °F /  10.2 °C 48.7 °F /  9.3 °C 29.1in /  986.5hPa West 2mph /  3.2km/h 5mph /  8km/h 94% 0.02in /  0.5mm 0 W/m2
03:13 50.4 °F /  10.2 °C 48.7 °F /  9.3 °C 29.1in /  986.5hPa Calm   6mph /  9.7km/h 94% 0.03in /  0.8mm 0 W/m2
03:18 50.4 °F /  10.2 °C 48.7 °F /  9.3 °C 29.1in /  986.8hPa NW 0.9mph /  1.4km/h 9mph /  14.5km/h 94% 0.03in /  0.8mm 0 W/m2
03:23 50.4 °F /  10.2 °C 48.7 °F /  9.3 °C 29.1in /  986.8hPa NW 2mph /  3.2km/h 4mph /  6.4km/h 94% 0.04in /  1.0mm 0 W/m2
03:28 50.5 °F /  10.3 °C 48.9 °F /  9.4 °C 29.2in /  987.1hPa SE 2mph /  3.2km/h 14mph /  22.5km/h 94% 0.05in /  1.3mm 0 W/m2
03:33 50.5 °F /  10.3 °C 48.9 °F /  9.4 °C 29.2in /  987.1hPa West 6mph /  9.7km/h 7mph /  11.3km/h 94% 0.05in /  1.3mm 0 W/m2
03:38 50.7 °F /  10.4 °C 49.1 °F /  9.5 °C 29.2in /  987.1hPa WNW 4mph /  6.4km/h 14mph /  22.5km/h 94% 0.05in /  1.3mm 0 W/m2
03:43 50.7 °F /  10.4 °C 49.1 °F /  9.5 °C 29.2in /  987.5hPa ENE 0.9mph /  1.4km/h 7mph /  11.3km/h 94% 0.05in /  1.3mm 0 W/m2
03:48 50.7 °F /  10.4 °C 49.1 °F /  9.5 °C 29.2in /  987.5hPa WSW 2mph /  3.2km/h 4mph /  6.4km/h 94% 0.06in /  1.5mm 0 W/m2
03:53 50.7 °F /  10.4 °C 49.1 °F /  9.5 °C 29.2in /  987.8hPa NNW 2.9mph /  4.7km/h 11mph /  17.7km/h 94% 0.06in /  1.5mm 0 W/m2
03:58 50.7 °F /  10.4 °C 49.1 °F /  9.5 °C 29.2in /  987.8hPa NW 0.9mph /  1.4km/h 8mph /  12.9km/h 94% 0.07in /  1.8mm 0 W/m2
04:03 50.7 °F /  10.4 °C 49.1 °F /  9.5 °C 29.2in /  987.8hPa NW 2mph /  3.2km/h 11mph /  17.7km/h 94% 0.09in /  2.3mm 0 W/m2
04:08 50.7 °F /  10.4 °C 49.1 °F /  9.5 °C 29.2in /  988.1hPa NE 6mph /  9.7km/h 9mph /  14.5km/h 94% 0.09in /  2.3mm 0 W/m2
04:13 50.7 °F /  10.4 °C 49.1 °F /  9.5 °C 29.2in /  988.1hPa ENE 0.9mph /  1.4km/h 4mph /  6.4km/h 94% 0.09in /  2.3mm 0 W/m2
04:18 50.7 °F /  10.4 °C 49.1 °F /  9.5 °C 29.2in /  988.5hPa NNW 2mph /  3.2km/h 9mph /  14.5km/h 94% 0.09in /  2.3mm 0 W/m2
04:23 50.7 °F /  10.4 °C 49.1 °F /  9.5 °C 29.2in /  988.5hPa WNW 4mph /  6.4km/h 8mph /  12.9km/h 94% 0.08in /  2.0mm 0 W/m2
04:28 50.9 °F /  10.5 °C 49.3 °F /  9.6 °C 29.2in /  988.5hPa SSW 4mph /  6.4km/h 14mph /  22.5km/h 94% 0.07in /  1.8mm 0 W/m2
04:33 50.9 °F /  10.5 °C 48.9 °F /  9.4 °C 29.2in /  988.8hPa WNW 4mph /  6.4km/h 8mph /  12.9km/h 93% 0.07in /  1.8mm 0 W/m2
04:38 50.9 °F /  10.5 °C 48.9 °F /  9.4 °C 29.2in /  988.8hPa WNW 10.1mph /  16.3km/h 10mph /  16.1km/h 93% 0.08in /  2.0mm 0 W/m2
04:43 51.1 °F /  10.6 °C 49.1 °F /  9.5 °C 29.2in /  989.2hPa NW 6mph /  9.7km/h 12mph /  19.3km/h 93% 0.07in /  1.8mm 0 W/m2
04:48 50.9 °F /  10.5 °C 48.9 °F /  9.4 °C 29.2in /  989.2hPa West 2mph /  3.2km/h 6mph /  9.7km/h 93% 0.06in /  1.5mm 0 W/m2
04:53 50.9 °F /  10.5 °C 48.7 °F /  9.3 °C 29.2in /  989.2hPa NNE 0.9mph /  1.4km/h 11mph /  17.7km/h 92% 0.05in /  1.3mm 0 W/m2
04:58 50.7 °F /  10.4 °C 48.7 °F /  9.3 °C 29.2in /  989.2hPa North 4mph /  6.4km/h 4mph /  6.4km/h 93% 0.04in /  1.0mm 0 W/m2
05:03 50.7 °F /  10.4 °C 48.7 °F /  9.3 °C 29.2in /  989.2hPa WNW 4mph /  6.4km/h 9mph /  14.5km/h 93% 0.02in /  0.5mm 0 W/m2
05:08 50.5 °F /  10.3 °C 48.6 °F /  9.2 °C 29.2in /  989.2hPa NNW 4mph /  6.4km/h 4mph /  6.4km/h 93% 0.02in /  0.5mm 0 W/m2
05:13 50.4 °F /  10.2 °C 48.4 °F /  9.1 °C 29.2in /  989.2hPa East 2mph /  3.2km/h 5mph /  8km/h 93% 0.02in /  0.5mm 0 W/m2
05:18 50.4 °F /  10.2 °C 48.4 °F /  9.1 °C 29.2in /  989.5hPa ENE 0.9mph /  1.4km/h 5mph /  8km/h 93% 0.02in /  0.5mm 0 W/m2
05:23 50.2 °F /  10.1 °C 48.2 °F /  9 °C 29.2in /  989.5hPa North 0.9mph /  1.4km/h 3mph /  4.8km/h 93% 0.02in /  0.5mm 0 W/m2
05:28 50.2 °F /  10.1 °C 48.2 °F /  9 °C 29.2in /  989.5hPa NNW 2mph /  3.2km/h 5mph /  8km/h 93% 0.02in /  0.5mm 0 W/m2
05:33 50.2 °F /  10.1 °C 48.2 °F /  9 °C 29.2in /  989.8hPa ENE 0.9mph /  1.4km/h 3mph /  4.8km/h 93% 0.02in /  0.5mm 0 W/m2
05:38 50.2 °F /  10.1 °C 48.2 °F /  9 °C 29.2in /  989.8hPa NNW 2mph /  3.2km/h 4mph /  6.4km/h 93% 0.02in /  0.5mm 0 W/m2
05:43 50.2 °F /  10.1 °C 48.2 °F /  9 °C 29.2in /  989.5hPa ENE 0.9mph /  1.4km/h 3mph /  4.8km/h 93% 0.02in /  0.5mm 0 W/m2
05:48 50.2 °F /  10.1 °C 48.2 °F /  9 °C 29.2in /  989.8hPa NNW 2.9mph /  4.7km/h 5mph /  8km/h 93% 0.02in /  0.5mm 0 W/m2
05:53 50.2 °F /  10.1 °C 48.2 °F /  9 °C 29.2in /  989.8hPa NE 2mph /  3.2km/h 4mph /  6.4km/h 93% 0.02in /  0.5mm 0 W/m2
05:58 49.8 °F /  9.9 °C 47.8 °F /  8.8 °C 29.2in /  989.8hPa Calm   4mph /  6.4km/h 93% 0.02in /  0.5mm 0 W/m2
06:03 49.8 °F /  9.9 °C 47.8 °F /  8.8 °C 29.2in /  989.8hPa NNW 2mph /  3.2km/h 4mph /  6.4km/h 93% 0.02in /  0.5mm 0 W/m2
06:08 49.6 °F /  9.8 °C 47.7 °F /  8.7 °C 29.2in /  989.8hPa NW 2.9mph /  4.7km/h 8mph /  12.9km/h 93% 0.03in /  0.8mm 0 W/m2
06:13 49.5 °F /  9.7 °C 47.5 °F /  8.6 °C 29.2in /  989.8hPa NW 2.9mph /  4.7km/h 4mph /  6.4km/h 93% 0.03in /  0.8mm 0 W/m2
06:18 49.3 °F /  9.6 °C 47.3 °F /  8.5 °C 29.2in /  989.8hPa North 0.9mph /  1.4km/h 8mph /  12.9km/h 93% 0.03in /  0.8mm 0 W/m2
06:23 49.3 °F /  9.6 °C 47.7 °F /  8.7 °C 29.2in /  989.8hPa Calm   6mph /  9.7km/h 94% 0.03in /  0.8mm 0 W/m2
06:28 49.1 °F /  9.5 °C 47.5 °F /  8.6 °C 29.2in /  989.8hPa NNE 2mph /  3.2km/h 4mph /  6.4km/h 94% 0.04in /  1.0mm 0 W/m2
06:33 49.1 °F /  9.5 °C 47.5 °F /  8.6 °C 29.2in /  989.8hPa North 2.9mph /  4.7km/h 5mph /  8km/h 94% 0.05in /  1.3mm 0 W/m2
06:38 49.3 °F /  9.6 °C 47.7 °F /  8.7 °C 29.2in /  990.2hPa NE 2mph /  3.2km/h 3mph /  4.8km/h 94% 0.06in /  1.5mm 0 W/m2
06:43 49.3 °F /  9.6 °C 47.7 °F /  8.7 °C 29.2in /  990.2hPa ENE 2.9mph /  4.7km/h 6mph /  9.7km/h 94% 0.06in /  1.5mm 0 W/m2
06:48 49.5 °F /  9.7 °C 47.8 °F /  8.8 °C 29.2in /  990.2hPa NNW 2mph /  3.2km/h 3mph /  4.8km/h 94% 0.06in /  1.5mm 0 W/m2
06:53 49.5 °F /  9.7 °C 47.8 °F /  8.8 °C 29.2in /  990.2hPa NE 2.9mph /  4.7km/h 11mph /  17.7km/h 94% 0.07in /  1.8mm 0 W/m2
06:59 49.6 °F /  9.8 °C 48 °F /  8.9 °C 29.3in /  990.5hPa NW 2mph /  3.2km/h 8mph /  12.9km/h 94% 0.08in /  2.0mm 0 W/m2
07:04 49.6 °F /  9.8 °C 48 °F /  8.9 °C 29.3in /  990.9hPa East 2.9mph /  4.7km/h 5mph /  8km/h 94% 0.08in /  2.0mm 0 W/m2
07:09 49.8 °F /  9.9 °C 48.2 °F /  9 °C 29.3in /  990.9hPa NW 2mph /  3.2km/h 10mph /  16.1km/h 94% 0.08in /  2.0mm 0 W/m2
07:14 49.8 °F /  9.9 °C 48.2 °F /  9 °C 29.3in /  991.2hPa NE 0.9mph /  1.4km/h 4mph /  6.4km/h 94% 0.07in /  1.8mm 0 W/m2
07:19 49.8 °F /  9.9 °C 48.2 °F /  9 °C 29.3in /  991.2hPa NNW 2mph /  3.2km/h 8mph /  12.9km/h 94% 0.07in /  1.8mm 0 W/m2
07:24 49.8 °F /  9.9 °C 48.2 °F /  9 °C 29.3in /  991.2hPa NE 0.9mph /  1.4km/h 2mph /  3.2km/h 94% 0.07in /  1.8mm 0 W/m2
07:29 49.8 °F /  9.9 °C 47.8 °F /  8.8 °C 29.3in /  991.5hPa West 2.9mph /  4.7km/h 9mph /  14.5km/h 93% 0.06in /  1.5mm 0 W/m2
07:34 49.8 °F /  9.9 °C 47.8 °F /  8.8 °C 29.3in /  991.5hPa NW 2.9mph /  4.7km/h 6mph /  9.7km/h 93% 0.06in /  1.5mm 0 W/m2
07:39 49.8 °F /  9.9 °C 47.8 °F /  8.8 °C 29.3in /  991.9hPa North 2.9mph /  4.7km/h 9mph /  14.5km/h 93% 0.06in /  1.5mm 0 W/m2
07:44 50 °F /  10 °C 48 °F /  8.9 °C 29.3in /  991.9hPa NW 4.9mph /  7.9km/h 9mph /  14.5km/h 93% 0.05in /  1.3mm 0 W/m2
07:49 50 °F /  10 °C 48 °F /  8.9 °C 29.3in /  991.9hPa WNW 2.9mph /  4.7km/h 7mph /  11.3km/h 93% 0.05in /  1.3mm 0 W/m2
07:54 49.8 °F /  9.9 °C 47.8 °F /  8.8 °C 29.3in /  991.9hPa NW 0.9mph /  1.4km/h 7mph /  11.3km/h 93% 0.05in /  1.3mm 0 W/m2
07:59 49.8 °F /  9.9 °C 47.8 °F /  8.8 °C 29.3in /  992.2hPa NNE 2mph /  3.2km/h 8mph /  12.9km/h 93% 0.04in /  1.0mm 0 W/m2
08:04 49.8 °F /  9.9 °C 47.8 °F /  8.8 °C 29.3in /  992.2hPa NNW 2.9mph /  4.7km/h 4mph /  6.4km/h 93% 0.04in /  1.0mm 5 W/m2
08:09 49.8 °F /  9.9 °C 47.8 °F /  8.8 °C 29.3in /  992.2hPa NW 0.9mph /  1.4km/h 4mph /  6.4km/h 93% 0.03in /  0.8mm 9 W/m2
08:14 49.6 °F /  9.8 °C 47.7 °F /  8.7 °C 29.3in /  992.5hPa West 2.9mph /  4.7km/h 8mph /  12.9km/h 93% 0.03in /  0.8mm 11 W/m2
08:19 49.6 °F /  9.8 °C 47.7 °F /  8.7 °C 29.3in /  992.5hPa West 4mph /  6.4km/h 12mph /  19.3km/h 93% 0.03in /  0.8mm 18 W/m2
08:24 49.6 °F /  9.8 °C 47.7 °F /  8.7 °C 29.3in /  992.5hPa ENE 4.9mph /  7.9km/h 13mph /  20.9km/h 93% 0.02in /  0.5mm 23 W/m2
08:29 49.6 °F /  9.8 °C 47.5 °F /  8.6 °C 29.3in /  992.5hPa East 2.9mph /  4.7km/h 9mph /  14.5km/h 92% 0.02in /  0.5mm 19 W/m2
08:34 49.5 °F /  9.7 °C 47.3 °F /  8.5 °C 29.3in /  992.9hPa WNW 2mph /  3.2km/h 18mph /  29km/h 92% 0.02in /  0.5mm 21 W/m2
08:39 49.5 °F /  9.7 °C 47.5 °F /  8.6 °C 29.3in /  993.2hPa WNW 8.9mph /  14.3km/h 14mph /  22.5km/h 93% 0.02in /  0.5mm 21 W/m2
08:44 49.5 °F /  9.7 °C 47.5 °F /  8.6 °C 29.3in /  993.2hPa West 2.9mph /  4.7km/h 10mph /  16.1km/h 93% 0.02in /  0.5mm 18 W/m2
08:49 49.3 °F /  9.6 °C 47.3 °F /  8.5 °C 29.3in /  993.6hPa North 0.9mph /  1.4km/h 14mph /  22.5km/h 93% 0.02in /  0.5mm 14 W/m2
08:54 49.3 °F /  9.6 °C 47.3 °F /  8.5 °C 29.3in /  993.6hPa WSW 2mph /  3.2km/h 17mph /  27.4km/h 93% 0.02in /  0.5mm 16 W/m2
08:59 49.1 °F /  9.5 °C 47.1 °F /  8.4 °C 29.3in /  993.6hPa NE 2mph /  3.2km/h 5mph /  8km/h 93% 0.02in /  0.5mm 33 W/m2
09:04 48.9 °F /  9.4 °C 46.9 °F /  8.3 °C 29.3in /  993.6hPa NNW 0.9mph /  1.4km/h 9mph /  14.5km/h 93% 0.01in /  0.2mm 32 W/m2
09:09 48.9 °F /  9.4 °C 46.9 °F /  8.3 °C 29.3in /  993.6hPa North 2mph /  3.2km/h 8mph /  12.9km/h 93% 0.02in /  0.5mm 25 W/m2
09:14 48.9 °F /  9.4 °C 46.9 °F /  8.3 °C 29.4in /  993.9hPa East 0.9mph /  1.4km/h 19mph /  30.6km/h 93% 0.02in /  0.5mm 23 W/m2
09:19 48.7 °F /  9.3 °C 46.8 °F /  8.2 °C 29.4in /  993.9hPa NNW 2mph /  3.2km/h 5mph /  8km/h 93% 0.02in /  0.5mm 37 W/m2
09:24 48.7 °F /  9.3 °C 46.8 °F /  8.2 °C 29.4in /  993.9hPa NW 6mph /  9.7km/h 19mph /  30.6km/h 93% 0.02in /  0.5mm 51 W/m2
09:29 48.7 °F /  9.3 °C 46.8 °F /  8.2 °C 29.4in /  994.2hPa South 2mph /  3.2km/h 13mph /  20.9km/h 93% 0.02in /  0.5mm 47 W/m2
09:34 48.7 °F /  9.3 °C 46.8 °F /  8.2 °C 29.4in /  994.2hPa NW 8.9mph /  14.3km/h 11mph /  17.7km/h 93% 0.02in /  0.5mm 60 W/m2
09:39 48.7 °F /  9.3 °C 46.8 °F /  8.2 °C 29.4in /  994.6hPa WNW 4.9mph /  7.9km/h 13mph /  20.9km/h 93% 0.02in /  0.5mm 46 W/m2
09:44 48.7 °F /  9.3 °C 46.6 °F /  8.1 °C 29.4in /  994.9hPa NW 4.9mph /  7.9km/h 5mph /  8km/h 92% 0.02in /  0.5mm 44 W/m2
09:49 48.7 °F /  9.3 °C 46.6 °F /  8.1 °C 29.4in /  994.9hPa NW 2mph /  3.2km/h 7mph /  11.3km/h 92% 0.02in /  0.5mm 72 W/m2
09:54 48.9 °F /  9.4 °C 46.8 °F /  8.2 °C 29.4in /  995.3hPa SE 2mph /  3.2km/h 8mph /  12.9km/h 92% 0.02in /  0.5mm 54 W/m2
09:59 48.7 °F /  9.3 °C 46.6 °F /  8.1 °C 29.4in /  994.9hPa West 4mph /  6.4km/h 17mph /  27.4km/h 92% 0.02in /  0.5mm 114 W/m2
10:04 48.7 °F /  9.3 °C 46.2 °F /  7.9 °C 29.4in /  995.3hPa NNW 2mph /  3.2km/h 8mph /  12.9km/h 91% 0.02in /  0.5mm 86 W/m2
10:09 48.7 °F /  9.3 °C 45.9 °F /  7.7 °C 29.4in /  995.3hPa SW 2mph /  3.2km/h 6mph /  9.7km/h 90% 0in /  0.0mm 74 W/m2
10:14 48.9 °F /  9.4 °C 46 °F /  7.8 °C 29.4in /  995.3hPa NW 2.9mph /  4.7km/h 6mph /  9.7km/h 90% 0in /  0.0mm 93 W/m2
10:19 48.9 °F /  9.4 °C 46 °F /  7.8 °C 29.4in /  995.3hPa NNW 2.9mph /  4.7km/h 5mph /  8km/h 90% 0in /  0.0mm 63 W/m2
10:24 48.9 °F /  9.4 °C 46 °F /  7.8 °C 29.4in /  995.6hPa NNW 8.9mph /  14.3km/h 11mph /  17.7km/h 90% 0in /  0.0mm 102 W/m2
10:29 48.9 °F /  9.4 °C 46 °F /  7.8 °C 29.4in /  995.6hPa WNW 2mph /  3.2km/h 8mph /  12.9km/h 90% 0in /  0.0mm 151 W/m2
10:34 49.1 °F /  9.5 °C 46.2 °F /  7.9 °C 29.4in /  995.6hPa NNW 8.9mph /  14.3km/h 9mph /  14.5km/h 90% 0in /  0.0mm 197 W/m2
10:39 49.3 °F /  9.6 °C 46.4 °F /  8 °C 29.4in /  995.6hPa Calm   4mph /  6.4km/h 90% 0in /  0.0mm 192 W/m2
10:44 49.5 °F /  9.7 °C 46.6 °F /  8.1 °C 29.4in /  995.6hPa SW 4.9mph /  7.9km/h 6mph /  9.7km/h 90% 0in /  0.0mm 202 W/m2
10:49 49.6 °F /  9.8 °C 46.6 °F /  8.1 °C 29.4in /  995.6hPa North 4mph /  6.4km/h 5mph /  8km/h 89% 0in /  0.0mm 425 W/m2
10:54 50 °F /  10 °C 46.9 °F /  8.3 °C 29.4in /  995.6hPa NNW 2.9mph /  4.7km/h 7mph /  11.3km/h 89% 0in /  0.0mm 504 W/m2
10:59 50.4 °F /  10.2 °C 46.6 °F /  8.1 °C 29.4in /  995.6hPa WSW 2mph /  3.2km/h 16mph /  25.7km/h 87% 0in /  0.0mm 480 W/m2
11:04 50.7 °F /  10.4 °C 46.9 °F /  8.3 °C 29.4in /  995.6hPa ENE 4.9mph /  7.9km/h 6mph /  9.7km/h 87% 0in /  0.0mm 376 W/m2
11:09 51.1 °F /  10.6 °C 47.3 °F /  8.5 °C 29.4in /  995.9hPa NNW 4mph /  6.4km/h 4mph /  6.4km/h 87% 0in /  0.0mm 206 W/m2
11:14 51.3 °F /  10.7 °C 47.3 °F /  8.5 °C 29.4in /  995.9hPa North 2mph /  3.2km/h 4mph /  6.4km/h 86% 0in /  0.0mm 206 W/m2
11:19 51.3 °F /  10.7 °C 46.9 °F /  8.3 °C 29.4in /  995.9hPa SW 4.9mph /  7.9km/h 8mph /  12.9km/h 85% 0in /  0.0mm 279 W/m2
11:24 51.3 °F /  10.7 °C 46.9 °F /  8.3 °C 29.4in /  995.9hPa NNW 4.9mph /  7.9km/h 9mph /  14.5km/h 85% 0in /  0.0mm 283 W/m2
11:29 51.4 °F /  10.8 °C 47.5 °F /  8.6 °C 29.4in /  995.9hPa North 4mph /  6.4km/h 6mph /  9.7km/h 86% 0in /  0.0mm 267 W/m2
11:34 51.4 °F /  10.8 °C 47.1 °F /  8.4 °C 29.4in /  995.9hPa WNW 2mph /  3.2km/h 8mph /  12.9km/h 85% 0in /  0.0mm 295 W/m2
11:39 51.6 °F /  10.9 °C 46.9 °F /  8.3 °C 29.4in /  995.9hPa East 4mph /  6.4km/h 7mph /  11.3km/h 84% 0in /  0.0mm 244 W/m2
11:44 52 °F /  11.1 °C 47.7 °F /  8.7 °C 29.4in /  995.9hPa NNW 2.9mph /  4.7km/h 4mph /  6.4km/h 85% 0in /  0.0mm 188 W/m2
11:49 52 °F /  11.1 °C 47.3 °F /  8.5 °C 29.4in /  996.3hPa NNE 2.9mph /  4.7km/h 7mph /  11.3km/h 84% 0in /  0.0mm 172 W/m2
11:54 52.2 °F /  11.2 °C 47.5 °F /  8.6 °C 29.4in /  996.3hPa West 2.9mph /  4.7km/h 9mph /  14.5km/h 84% 0in /  0.0mm 186 W/m2
11:59 52.2 °F /  11.2 °C 47.5 °F /  8.6 °C 29.4in /  996.3hPa NNW 4mph /  6.4km/h 4mph /  6.4km/h 84% 0in /  0.0mm 267 W/m2
12:04 52.3 °F /  11.3 °C 47.7 °F /  8.7 °C 29.4in /  995.9hPa NW 2.9mph /  4.7km/h 7mph /  11.3km/h 84% 0in /  0.0mm 267 W/m2
12:09 52.9 °F /  11.6 °C 47.8 °F /  8.8 °C 29.4in /  996.3hPa West 0.9mph /  1.4km/h 5mph /  8km/h 83% 0in /  0.0mm 295 W/m2
12:14 53.2 °F /  11.8 °C 48.2 °F /  9 °C 29.4in /  996.3hPa NW 4.9mph /  7.9km/h 9mph /  14.5km/h 83% 0in /  0.0mm 278 W/m2
12:19 53.4 °F /  11.9 °C 48 °F /  8.9 °C 29.4in /  996.3hPa ENE 2mph /  3.2km/h 10mph /  16.1km/h 82% 0in /  0.0mm 192 W/m2
12:24 53.6 °F /  12 °C 47.8 °F /  8.8 °C 29.4in /  996.3hPa NW 4mph /  6.4km/h 4mph /  6.4km/h 81% 0in /  0.0mm 554 W/m2
12:29 54 °F /  12.2 °C 48 °F /  8.9 °C 29.4in /  995.9hPa North 4mph /  6.4km/h 5mph /  8km/h 80% 0in /  0.0mm 271 W/m2
12:34 54.5 °F /  12.5 °C 48.2 °F /  9 °C 29.4in /  995.9hPa WSW 2.9mph /  4.7km/h 12mph /  19.3km/h 79% 0in /  0.0mm 121 W/m2
12:39 54.7 °F /  12.6 °C 48 °F /  8.9 °C 29.4in /  995.9hPa NW 2mph /  3.2km/h 11mph /  17.7km/h 78% 0in /  0.0mm 271 W/m2
12:44 54.7 °F /  12.6 °C 48 °F /  8.9 °C 29.4in /  995.9hPa NW 0.9mph /  1.4km/h 12mph /  19.3km/h 78% 0in /  0.0mm 232 W/m2
12:49 54.9 °F /  12.7 °C 48.2 °F /  9 °C 29.4in /  995.9hPa NNE 2.9mph /  4.7km/h 4mph /  6.4km/h 78% 0in /  0.0mm 195 W/m2
12:54 55.2 °F /  12.9 °C 48.6 °F /  9.2 °C 29.4in /  995.9hPa NNE 2.9mph /  4.7km/h 8mph /  12.9km/h 78% 0in /  0.0mm 330 W/m2
12:59 55.6 °F /  13.1 °C 48.6 °F /  9.2 °C 29.4in /  995.9hPa East 6mph /  9.7km/h 6mph /  9.7km/h 77% 0in /  0.0mm 397 W/m2
13:04 55.9 °F /  13.3 °C 48.6 °F /  9.2 °C 29.4in /  995.9hPa North 4.9mph /  7.9km/h 5mph /  8km/h 76% 0in /  0.0mm 496 W/m2
13:09 56.1 °F /  13.4 °C 48.7 °F /  9.3 °C 29.4in /  996.3hPa Calm   4mph /  6.4km/h 76% 0in /  0.0mm 188 W/m2
13:14 56.1 °F /  13.4 °C 48.4 °F /  9.1 °C 29.4in /  996.3hPa East 2mph /  3.2km/h 4mph /  6.4km/h 75% 0in /  0.0mm 121 W/m2
13:19 55.9 °F /  13.3 °C 48.2 °F /  9 °C 29.4in /  996.3hPa WNW 2.9mph /  4.7km/h 8mph /  12.9km/h 75% 0in /  0.0mm 127 W/m2
13:24 55.6 °F /  13.1 °C 47.8 °F /  8.8 °C 29.4in /  996.6hPa West 2mph /  3.2km/h 4mph /  6.4km/h 75% 0in /  0.0mm 86 W/m2
13:29 55.6 °F /  13.1 °C 48.2 °F /  9 °C 29.4in /  996.6hPa ENE 2mph /  3.2km/h 3mph /  4.8km/h 76% 0in /  0.0mm 149 W/m2
13:34 55.4 °F /  13 °C 48.4 °F /  9.1 °C 29.4in /  996.3hPa North 0.9mph /  1.4km/h 3mph /  4.8km/h 77% 0in /  0.0mm 243 W/m2
13:39 55.8 °F /  13.2 °C 48.4 °F /  9.1 °C 29.4in /  996.3hPa ESE 0.9mph /  1.4km/h 7mph /  11.3km/h 76% 0in /  0.0mm 350 W/m2
13:44 55.9 °F /  13.3 °C 48.6 °F /  9.2 °C 29.4in /  996.3hPa NNW 0.9mph /  1.4km/h 3mph /  4.8km/h 76% 0in /  0.0mm 279 W/m2
13:49 56.5 °F /  13.6 °C 48.9 °F /  9.4 °C 29.4in /  996.3hPa NW 2mph /  3.2km/h 3mph /  4.8km/h 76% 0in /  0.0mm 176 W/m2
13:54 56.5 °F /  13.6 °C 48.4 °F /  9.1 °C 29.4in /  995.9hPa WNW 2mph /  3.2km/h 4mph /  6.4km/h 74% 0in /  0.0mm 186 W/m2
13:59 56.7 °F /  13.7 °C 48 °F /  8.9 °C 29.4in /  996.3hPa Calm   6mph /  9.7km/h 73% 0in /  0.0mm 297 W/m2
14:04 56.8 °F /  13.8 °C 48.2 °F /  9 °C 29.4in /  996.3hPa Calm   4mph /  6.4km/h 73% 0in /  0.0mm 225 W/m2
14:09 57.4 °F /  14.1 °C 48.4 °F /  9.1 °C 29.4in /  996.3hPa NE 4mph /  6.4km/h 4mph /  6.4km/h 72% 0in /  0.0mm 197 W/m2
14:14 57.6 °F /  14.2 °C 48.6 °F /  9.2 °C 29.4in /  996.3hPa NNW 0.9mph /  1.4km/h 2mph /  3.2km/h 72% 0in /  0.0mm 237 W/m2
14:19 57.7 °F /  14.3 °C 48.4 °F /  9.1 °C 29.4in /  996.3hPa North 0.9mph /  1.4km/h 5mph /  8km/h 71% 0in /  0.0mm 181 W/m2
14:24 57.7 °F /  14.3 °C 48 °F /  8.9 °C 29.4in /  996.3hPa WNW 2mph /  3.2km/h 3mph /  4.8km/h 70% 0in /  0.0mm 267 W/m2
14:29 57.9 °F /  14.4 °C 48.2 °F /  9 °C 29.4in /  995.9hPa North 2mph /  3.2km/h 5mph /  8km/h 70% 0in /  0.0mm 248 W/m2
14:34 58.3 °F /  14.6 °C 48.9 °F /  9.4 °C 29.4in /  995.9hPa NNW 4.9mph /  7.9km/h 5mph /  8km/h 71% 0in /  0.0mm 281 W/m2
14:40 58.6 °F /  14.8 °C 48.2 °F /  9 °C 29.4in /  995.9hPa NE 2.9mph /  4.7km/h 7mph /  11.3km/h 68% 0in /  0.0mm 260 W/m2
14:45 59 °F /  15 °C 48.4 °F /  9.1 °C 29.4in /  995.9hPa SSE 0.9mph /  1.4km/h 6mph /  9.7km/h 68% 0in /  0.0mm 213 W/m2
14:50 59.4 °F /  15.2 °C 48.4 °F /  9.1 °C 29.4in /  995.9hPa NW 4mph /  6.4km/h 9mph /  14.5km/h 67% 0in /  0.0mm 213 W/m2
14:55 59.4 °F /  15.2 °C 48.4 °F /  9.1 °C 29.4in /  995.9hPa NNE 2mph /  3.2km/h 6mph /  9.7km/h 67% 0in /  0.0mm 144 W/m2
15:00 59.5 °F /  15.3 °C 47.8 °F /  8.8 °C 29.4in /  995.9hPa NNW 2mph /  3.2km/h 6mph /  9.7km/h 65% 0in /  0.0mm 165 W/m2
15:05 59.5 °F /  15.3 °C 48.2 °F /  9 °C 29.4in /  995.9hPa NE 0.9mph /  1.4km/h 4mph /  6.4km/h 66% 0in /  0.0mm 221 W/m2
15:10 59.5 °F /  15.3 °C 48.2 °F /  9 °C 29.4in /  995.9hPa ENE 0.9mph /  1.4km/h 4mph /  6.4km/h 66% 0in /  0.0mm 255 W/m2
15:15 59.4 °F /  15.2 °C 48.4 °F /  9.1 °C 29.4in /  995.9hPa NNE 8.1mph /  13km/h 13mph /  20.9km/h 67% 0in /  0.0mm 223 W/m2
15:20 58.6 °F /  14.8 °C 48.6 °F /  9.2 °C 29.4in /  995.9hPa East 2.9mph /  4.7km/h 5mph /  8km/h 69% 0in /  0.0mm 90 W/m2
15:25 57.9 °F /  14.4 °C 48.6 °F /  9.2 °C 29.4in /  996.3hPa East 2.9mph /  4.7km/h 13mph /  20.9km/h 71% 0in /  0.0mm 100 W/m2
15:30 57.4 °F /  14.1 °C 50.2 °F /  10.1 °C 29.4in /  996.3hPa ESE 0.9mph /  1.4km/h 3mph /  4.8km/h 77% 0.01in /  0.2mm 202 W/m2
15:35 56.8 °F /  13.8 °C 49.6 °F /  9.8 °C 29.4in /  995.9hPa NE 2mph /  3.2km/h 5mph /  8km/h 77% 0.01in /  0.2mm 79 W/m2
15:40 56.5 °F /  13.6 °C 49.6 °F /  9.8 °C 29.4in /  996.3hPa ESE 2.9mph /  4.7km/h 5mph /  8km/h 78% 0.01in /  0.2mm 137 W/m2
15:45 56.5 °F /  13.6 °C 50.4 °F /  10.2 °C 29.4in /  996.3hPa NW 2mph /  3.2km/h 4mph /  6.4km/h 80% 0.02in /  0.5mm 294 W/m2
15:50 56.5 °F /  13.6 °C 50.7 °F /  10.4 °C 29.4in /  996.3hPa North 0.9mph /  1.4km/h 5mph /  8km/h 81% 0.02in /  0.5mm 575 W/m2
15:55 56.8 °F /  13.8 °C 51.4 °F /  10.8 °C 29.4in /  996.3hPa NNW 0.9mph /  1.4km/h 2mph /  3.2km/h 82% 0.02in /  0.5mm 200 W/m2
16:00 57 °F /  13.9 °C 50.9 °F /  10.5 °C 29.4in /  996.3hPa North 0.9mph /  1.4km/h 5mph /  8km/h 80% 0.02in /  0.5mm 199 W/m2
16:05 56.8 °F /  13.8 °C 50.7 °F /  10.4 °C 29.4in /  996.3hPa NW 2mph /  3.2km/h 8mph /  12.9km/h 80% 0.02in /  0.5mm 260 W/m2
16:10 56.8 °F /  13.8 °C 51.1 °F /  10.6 °C 29.4in /  996.3hPa NW 0.9mph /  1.4km/h 5mph /  8km/h 81% 0.02in /  0.5mm 137 W/m2
16:15 56.8 °F /  13.8 °C 51.4 °F /  10.8 °C 29.4in /  996.3hPa WNW 0.9mph /  1.4km/h 3mph /  4.8km/h 82% 0.02in /  0.5mm 84 W/m2
16:20 56.7 °F /  13.7 °C 51.3 °F /  10.7 °C 29.4in /  996.3hPa Calm   5mph /  8km/h 82% 0.02in /  0.5mm 60 W/m2
16:25 56.7 °F /  13.7 °C 52.2 °F /  11.2 °C 29.4in /  996.3hPa Calm     85% 0.02in /  0.5mm 100 W/m2
16:30 56.7 °F /  13.7 °C 52.2 °F /  11.2 °C 29.4in /  996.3hPa ENE 0.9mph /  1.4km/h 1mph /  1.6km/h 85% 0.01in /  0.2mm 54 W/m2
16:35 56.5 °F /  13.6 °C 52 °F /  11.1 °C 29.4in /  996.3hPa WSW 2.9mph /  4.7km/h 3mph /  4.8km/h 85% 0.01in /  0.2mm 28 W/m2
16:40 56.1 °F /  13.4 °C 51.6 °F /  10.9 °C 29.4in /  996.3hPa SW 4.9mph /  7.9km/h 6mph /  9.7km/h 85% 0.02in /  0.5mm 16 W/m2
16:45 55.9 °F /  13.3 °C 51.8 °F /  11 °C 29.4in /  996.6hPa Calm   1mph /  1.6km/h 86% 0.02in /  0.5mm 14 W/m2
16:50 55.2 °F /  12.9 °C 50.7 °F /  10.4 °C 29.4in /  996.3hPa NNW 2.9mph /  4.7km/h 5mph /  8km/h 85% 0.04in /  1.0mm 30 W/m2
16:55 54.7 °F /  12.6 °C 50.2 °F /  10.1 °C 29.4in /  996.3hPa North 4mph /  6.4km/h 5mph /  8km/h 85% 0.04in /  1.0mm 26 W/m2
17:00 54 °F /  12.2 °C 49.6 °F /  9.8 °C 29.4in /  996.6hPa Calm   2mph /  3.2km/h 85% 0.04in /  1.0mm 18 W/m2
17:05 53.8 °F /  12.1 °C 49.6 °F /  9.8 °C 29.4in /  996.6hPa NNE 2.9mph /  4.7km/h 4mph /  6.4km/h 86% 0.06in /  1.5mm 9 W/m2
17:10 53.2 °F /  11.8 °C 49.5 °F /  9.7 °C 29.4in /  996.6hPa NW 4mph /  6.4km/h 5mph /  8km/h 87% 0.06in /  1.5mm 12 W/m2
17:15 52.9 °F /  11.6 °C 49.5 °F /  9.7 °C 29.4in /  997.0hPa WNW 2.9mph /  4.7km/h 4mph /  6.4km/h 88% 0.07in /  1.8mm 11 W/m2
17:20 52.5 °F /  11.4 °C 49.5 °F /  9.7 °C 29.4in /  997.0hPa Calm   3mph /  4.8km/h 89% 0.1in /  2.5mm 12 W/m2
17:25 52.2 °F /  11.2 °C 49.1 °F /  9.5 °C 29.4in /  997.0hPa NNW 0.9mph /  1.4km/h 9mph /  14.5km/h 89% 0.13in /  3.3mm 21 W/m2
17:30 52 °F /  11.1 °C 49.1 °F /  9.5 °C 29.4in /  997.0hPa NNW 2.9mph /  4.7km/h 4mph /  6.4km/h 90% 0.14in /  3.6mm 21 W/m2
17:35 51.6 °F /  10.9 °C 48.7 °F /  9.3 °C 29.4in /  997.0hPa ENE 2mph /  3.2km/h 3mph /  4.8km/h 90% 0.16in /  4.1mm 28 W/m2
17:40 51.4 °F /  10.8 °C 48.6 °F /  9.2 °C 29.4in /  997.0hPa North 2mph /  3.2km/h 3mph /  4.8km/h 90% 0.16in /  4.1mm 46 W/m2
17:45 51.4 °F /  10.8 °C 48.9 °F /  9.4 °C 29.4in /  997.0hPa NNW 0.9mph /  1.4km/h 3mph /  4.8km/h 91% 0.16in /  4.1mm 46 W/m2
17:50 51.4 °F /  10.8 °C 48.9 °F /  9.4 °C 29.4in /  997.0hPa NNE 2mph /  3.2km/h 3mph /  4.8km/h 91% 0.13in /  3.3mm 49 W/m2
17:55 51.3 °F /  10.7 °C 48.7 °F /  9.3 °C 29.4in /  997.0hPa NW 2.9mph /  4.7km/h 4mph /  6.4km/h 91% 0.13in /  3.3mm 47 W/m2
18:00 51.4 °F /  10.8 °C 48.9 °F /  9.4 °C 29.4in /  996.6hPa ENE 2.9mph /  4.7km/h 4mph /  6.4km/h 91% 0.14in /  3.6mm 74 W/m2
18:05 51.4 °F /  10.8 °C 48.9 °F /  9.4 °C 29.4in /  996.6hPa Calm   3mph /  4.8km/h 91% 0.13in /  3.3mm 114 W/m2
18:10 51.6 °F /  10.9 °C 49.1 °F /  9.5 °C 29.4in /  997.0hPa NNE 2mph /  3.2km/h 3mph /  4.8km/h 91% 0.12in /  3.0mm 128 W/m2
18:15 51.8 °F /  11 °C 49.3 °F /  9.6 °C 29.4in /  997.0hPa NE 0.9mph /  1.4km/h 2mph /  3.2km/h 91% 0.1in /  2.5mm 77 W/m2
18:21 51.8 °F /  11 °C 49.3 °F /  9.6 °C 29.4in /  997.0hPa ENE 2.9mph /  4.7km/h 5mph /  8km/h 91% 0.08in /  2.0mm 47 W/m2
18:26 51.8 °F /  11 °C 49.3 °F /  9.6 °C 29.4in /  997.0hPa NE 2.9mph /  4.7km/h 4mph /  6.4km/h 91% 0.05in /  1.3mm 37 W/m2
18:31 51.6 °F /  10.9 °C 49.1 °F /  9.5 °C 29.4in /  997.0hPa East 2mph /  3.2km/h 4mph /  6.4km/h 91% 0.04in /  1.0mm 32 W/m2
18:36 51.6 °F /  10.9 °C 48.7 °F /  9.3 °C 29.4in /  997.0hPa ENE 2.9mph /  4.7km/h 4mph /  6.4km/h 90% 0.02in /  0.5mm 30 W/m2
18:41 51.4 °F /  10.8 °C 48.9 °F /  9.4 °C 29.5in /  997.3hPa East 0.9mph /  1.4km/h 3mph /  4.8km/h 91% 0.02in /  0.5mm 26 W/m2
18:46 51.4 °F /  10.8 °C 48.9 °F /  9.4 °C 29.5in /  997.3hPa NNE 0.9mph /  1.4km/h 4mph /  6.4km/h 91% 0.01in /  0.2mm 18 W/m2
18:51 51.3 °F /  10.7 °C 48.7 °F /  9.3 °C 29.5in /  997.3hPa Calm     91% 0.01in /  0.2mm 16 W/m2
18:56 51.3 °F /  10.7 °C 49.1 °F /  9.5 °C 29.5in /  997.3hPa Calm   4mph /  6.4km/h 92% 0in /  0.0mm 9 W/m2
19:01 50.9 °F /  10.5 °C 48.7 °F /  9.3 °C 29.5in /  997.3hPa Calm   2mph /  3.2km/h 92% 0in /  0.0mm 7 W/m2
19:06 50.7 °F /  10.4 °C 48.6 °F /  9.2 °C 29.5in /  997.3hPa Calm   2mph /  3.2km/h 92% 0in /  0.0mm 0 W/m2
19:11 50.4 °F /  10.2 °C 48.2 °F /  9 °C 29.5in /  997.6hPa Calm   2mph /  3.2km/h 92% 0in /  0.0mm 0 W/m2
19:16 50.2 °F /  10.1 °C 48 °F /  8.9 °C 29.5in /  997.6hPa Calm   1mph /  1.6km/h 92% 0in /  0.0mm 0 W/m2
19:21 49.8 °F /  9.9 °C 47.8 °F /  8.8 °C 29.5in /  997.6hPa East 0.9mph /  1.4km/h 2mph /  3.2km/h 93% 0in /  0.0mm 0 W/m2
19:26 49.6 °F /  9.8 °C 47.7 °F /  8.7 °C 29.5in /  997.6hPa Calm   3mph /  4.8km/h 93% 0in /  0.0mm 0 W/m2
19:31 49.6 °F /  9.8 °C 48 °F /  8.9 °C 29.5in /  997.6hPa Calm   2mph /  3.2km/h 94% 0in /  0.0mm 0 W/m2
19:36 49.6 °F /  9.8 °C 48 °F /  8.9 °C 29.5in /  997.6hPa NE 0.9mph /  1.4km/h 4mph /  6.4km/h 94% 0in /  0.0mm 0 W/m2
19:41 49.6 °F /  9.8 °C 48 °F /  8.9 °C 29.5in /  998.0hPa ENE 2mph /  3.2km/h 3mph /  4.8km/h 94% 0in /  0.0mm 0 W/m2
19:46 49.8 °F /  9.9 °C 48.2 °F /  9 °C 29.5in /  998.0hPa NE 2.9mph /  4.7km/h 3mph /  4.8km/h 94% 0in /  0.0mm 0 W/m2
19:51 49.8 °F /  9.9 °C 48.2 °F /  9 °C 29.5in /  998.0hPa Calm   1mph /  1.6km/h 94% 0in /  0.0mm 0 W/m2
19:56 49.8 °F /  9.9 °C 48.2 °F /  9 °C 29.5in /  998.0hPa ENE 2.9mph /  4.7km/h 3mph /  4.8km/h 94% 0in /  0.0mm 0 W/m2
20:01 49.6 °F /  9.8 °C 48 °F /  8.9 °C 29.5in /  998.0hPa Calm   1mph /  1.6km/h 94% 0in /  0.0mm 0 W/m2
20:06 49.6 °F /  9.8 °C 48 °F /  8.9 °C 29.5in /  998.0hPa Calm     94% 0in /  0.0mm 0 W/m2
20:11 49.3 °F /  9.6 °C 47.7 °F /  8.7 °C 29.5in /  998.0hPa SE 0.9mph /  1.4km/h 2mph /  3.2km/h 94% 0in /  0.0mm 0 W/m2
20:16 49.3 °F /  9.6 °C 47.7 °F /  8.7 °C 29.5in /  998.0hPa NE 0.9mph /  1.4km/h 4mph /  6.4km/h 94% 0in /  0.0mm 0 W/m2
20:22 49.3 °F /  9.6 °C 47.8 °F /  8.8 °C 29.5in /  998.0hPa Calm   1mph /  1.6km/h 95% 0in /  0.0mm 0 W/m2
20:27 49.1 °F /  9.5 °C 47.5 °F /  8.6 °C 29.5in /  998.0hPa NE 0.9mph /  1.4km/h 3mph /  4.8km/h 94% 0in /  0.0mm 0 W/m2
20:32 48.9 °F /  9.4 °C 47.3 °F /  8.5 °C 29.5in /  998.0hPa ENE 0.9mph /  1.4km/h 4mph /  6.4km/h 94% 0in /  0.0mm 0 W/m2
20:37 48.7 °F /  9.3 °C 47.1 °F /  8.4 °C 29.5in /  998.0hPa Calm   2mph /  3.2km/h 94% 0in /  0.0mm 0 W/m2
20:42 48.7 °F /  9.3 °C 47.3 °F /  8.5 °C 29.5in /  998.0hPa NE 0.9mph /  1.4km/h 4mph /  6.4km/h 95% 0in /  0.0mm 0 W/m2
20:47 48.9 °F /  9.4 °C 47.5 °F /  8.6 °C 29.5in /  998.0hPa NNE 0.9mph /  1.4km/h 3mph /  4.8km/h 95% 0in /  0.0mm 0 W/m2
20:52 48.9 °F /  9.4 °C 47.5 °F /  8.6 °C 29.5in /  998.0hPa ENE 0.9mph /  1.4km/h 6mph /  9.7km/h 95% 0in /  0.0mm 0 W/m2
20:57 49.1 °F /  9.5 °C 47.7 °F /  8.7 °C 29.5in /  998.0hPa ENE 0.9mph /  1.4km/h 4mph /  6.4km/h 95% 0in /  0.0mm 0 W/m2
21:02 49.3 °F /  9.6 °C 47.8 °F /  8.8 °C 29.5in /  998.0hPa NNE 2.9mph /  4.7km/h 6mph /  9.7km/h 95% 0in /  0.0mm 0 W/m2
21:07 49.5 °F /  9.7 °C 48 °F /  8.9 °C 29.5in /  998.0hPa Calm   5mph /  8km/h 95% 0in /  0.0mm 0 W/m2
21:12 49.6 °F /  9.8 °C 48 °F /  8.9 °C 29.5in /  998.0hPa ENE 2.9mph /  4.7km/h 5mph /  8km/h 94% 0in /  0.0mm 0 W/m2
21:17 49.8 °F /  9.9 °C 48.2 °F /  9 °C 29.5in /  998.0hPa East 2mph /  3.2km/h 4mph /  6.4km/h 94% 0in /  0.0mm 0 W/m2
21:22 49.6 °F /  9.8 °C 48 °F /  8.9 °C 29.5in /  998.0hPa ENE 2mph /  3.2km/h 4mph /  6.4km/h 94% 0in /  0.0mm 0 W/m2
21:27 49.6 °F /  9.8 °C 48 °F /  8.9 °C 29.5in /  998.0hPa East 0.9mph /  1.4km/h 4mph /  6.4km/h 94% 0in /  0.0mm 0 W/m2
21:32 49.6 °F /  9.8 °C 47.7 °F /  8.7 °C 29.5in /  998.0hPa ENE 2mph /  3.2km/h 4mph /  6.4km/h 93% 0in /  0.0mm 0 W/m2
21:37 49.5 °F /  9.7 °C 47.5 °F /  8.6 °C 29.5in /  998.3hPa NE 0.9mph /  1.4km/h 3mph /  4.8km/h 93% 0in /  0.0mm 0 W/m2
21:42 49.5 °F /  9.7 °C 47.8 °F /  8.8 °C 29.5in /  998.3hPa NE 2mph /  3.2km/h 4mph /  6.4km/h 94% 0in /  0.0mm 0 W/m2
21:47 49.5 °F /  9.7 °C 47.5 °F /  8.6 °C 29.5in /  998.3hPa NE 0.9mph /  1.4km/h 4mph /  6.4km/h 93% 0in /  0.0mm 0 W/m2
21:52 49.3 °F /  9.6 °C 47.3 °F /  8.5 °C 29.5in /  998.3hPa East 0.9mph /  1.4km/h 4mph /  6.4km/h 93% 0in /  0.0mm 0 W/m2
21:57 49.3 °F /  9.6 °C 47.7 °F /  8.7 °C 29.5in /  998.3hPa NE 2.9mph /  4.7km/h 7mph /  11.3km/h 94% 0in /  0.0mm 0 W/m2
22:02 49.1 °F /  9.5 °C 47.5 °F /  8.6 °C 29.5in /  998.3hPa NE 2mph /  3.2km/h 4mph /  6.4km/h 94% 0in /  0.0mm 0 W/m2
22:07 48.9 °F /  9.4 °C 47.3 °F /  8.5 °C 29.5in /  998.3hPa ENE 0.9mph /  1.4km/h 2mph /  3.2km/h 94% 0in /  0.0mm 0 W/m2
22:12 48.9 °F /  9.4 °C 47.3 °F /  8.5 °C 29.5in /  998.3hPa Calm   1mph /  1.6km/h 94% 0in /  0.0mm 0 W/m2
22:17 48.6 °F /  9.2 °C 46.9 °F /  8.3 °C 29.5in /  998.3hPa Calm   1mph /  1.6km/h 94% 0in /  0.0mm 0 W/m2
22:22 48.4 °F /  9.1 °C 46.8 °F /  8.2 °C 29.5in /  998.3hPa Calm   2mph /  3.2km/h 94% 0in /  0.0mm 0 W/m2
22:27 48 °F /  8.9 °C 46.4 °F /  8 °C 29.5in /  998.3hPa Calm   2mph /  3.2km/h 94% 0in /  0.0mm 0 W/m2
22:32 47.8 °F /  8.8 °C 46.2 °F /  7.9 °C 29.5in /  998.6hPa Calm   1mph /  1.6km/h 94% 0in /  0.0mm 0 W/m2
22:37 47.7 °F /  8.7 °C 46 °F /  7.8 °C 29.5in /  998.6hPa SE 0.9mph /  1.4km/h 2mph /  3.2km/h 94% 0in /  0.0mm 0 W/m2
22:42 47.5 °F /  8.6 °C 45.9 °F /  7.7 °C 29.5in /  998.6hPa SE 0.9mph /  1.4km/h 2mph /  3.2km/h 94% 0in /  0.0mm 0 W/m2
22:47 47.3 °F /  8.5 °C 45.7 °F /  7.6 °C 29.5in /  998.6hPa ESE 2mph /  3.2km/h 3mph /  4.8km/h 94% 0in /  0.0mm 0 W/m2
22:52 47.3 °F /  8.5 °C 45.9 °F /  7.7 °C 29.5in /  998.6hPa ESE 0.9mph /  1.4km/h 2mph /  3.2km/h 95% 0in /  0.0mm 0 W/m2
22:57 47.1 °F /  8.4 °C 45.7 °F /  7.6 °C 29.5in /  998.6hPa ENE 4mph /  6.4km/h 4mph /  6.4km/h 95% 0in /  0.0mm 0 W/m2
23:02 47.7 °F /  8.7 °C 46.2 °F /  7.9 °C 29.5in /  998.6hPa NE 0.9mph /  1.4km/h 4mph /  6.4km/h 95% 0in /  0.0mm 0 W/m2
23:07 47.8 °F /  8.8 °C 46.8 °F /  8.2 °C 29.5in /  998.6hPa ENE 2mph /  3.2km/h 5mph /  8km/h 96% 0in /  0.0mm 0 W/m2
23:12 48 °F /  8.9 °C 46.6 °F /  8.1 °C 29.5in /  998.6hPa East 2mph /  3.2km/h 6mph /  9.7km/h 95% 0in /  0.0mm 0 W/m2
23:17 48 °F /  8.9 °C 46.6 °F /  8.1 °C 29.5in /  999.0hPa ENE 2mph /  3.2km/h 4mph /  6.4km/h 95% 0in /  0.0mm 0 W/m2
23:22 48.4 °F /  9.1 °C 46.9 °F /  8.3 °C 29.5in /  999.0hPa East 2.9mph /  4.7km/h 5mph /  8km/h 95% 0in /  0.0mm 0 W/m2
23:27 48.6 °F /  9.2 °C 47.1 °F /  8.4 °C 29.5in /  999.0hPa ENE 4mph /  6.4km/h 4mph /  6.4km/h 95% 0in /  0.0mm 0 W/m2
23:32 48.6 °F /  9.2 °C 47.1 °F /  8.4 °C 29.5in /  999.0hPa NNE 2.9mph /  4.7km/h 4mph /  6.4km/h 95% 0in /  0.0mm 0 W/m2
23:37 48.7 °F /  9.3 °C 47.3 °F /  8.5 °C 29.5in /  999.0hPa WNW 0.9mph /  1.4km/h 4mph /  6.4km/h 95% 0in /  0.0mm 0 W/m2
23:42 48.9 °F /  9.4 °C 47.5 °F /  8.6 °C 29.5in /  999.0hPa East 2mph /  3.2km/h 3mph /  4.8km/h 95% 0in /  0.0mm 0 W/m2
23:47 48.9 °F /  9.4 °C 47.5 °F /  8.6 °C 29.5in /  999.3hPa NE 2.9mph /  4.7km/h 4mph /  6.4km/h 95% 0in /  0.0mm 0 W/m2
23:52 49.1 °F /  9.5 °C 47.5 °F /  8.6 °C 29.5in /  999.3hPa NE 0.9mph /  1.4km/h 3mph /  4.8km/h 94% 0in /  0.0mm 0 W/m2
23:57 49.3 °F /  9.6 °C 47.7 °F /  8.7 °C 29.5in /  999.3hPa ENE 2mph /  3.2km/h 4mph /  6.4km/h 94% 0in /  0.0mm 0 W/m2
Juneau County Weather
Compliments of Weather Underground - 4 mb